Terminal Aerodrome Forecast
Issued by NWS Charleston, WV

Current Version | Previous Version | Graphics & Text | Print | Product List | Glossary On
Versions: 1 2 3 4 5 6 7 8 9 10 11 12 13 14 15 16 17 18 19 20 21 22 23 24 25 26 27
000
FTUS41 KRLX 180200 AAA
TAFEKN
TAF AMD
KEKN 180214Z 1802/1824 00000KT P6SM BKN035
     FM180600 00000KT 4SM BR BKN040
     FM180700 00000KT 1/2SM FG VV001
     FM181300 00000KT 3/4SM BR SCT001 BKN010
     FM181400 00000KT 1/2SM FG BKN015
     FM181500 00000KT P6SM SCT020=

USA.gov is the U.S. government's official web portal to all federal, state and local government web resources and services.